LFRD 121530Z AUTO 29014KT 9999 OVC007 10/09 Q1027 TEMPO 29015G25KT 2500 RADZ

ElémentsDécodage
LFRD Station météo située sur l'aérodrome de DINARD Pleurtuit-Saint-Malo
121530Z émis le 12 du mois à 15h30 UTC
AUTO Bulletin édité par un automate
29014KT vent du 290°, 14 noeuds
9999 visibilité horizontale supérieure à 10 Km
OVC007 couverture nuageuse totale (8/8) à 700 pieds
10/09 température 10°C, point de rosée 09°C
 soit une humidité relative de 94%
Q1027 la pression au niveau de la mer (QNH) est de 1027 hPa
TEMPO fluctuation temporaire prévue
29015G25KT vent du 290°, moyenne: 15 noeuds, avec rafales à 25 noeuds
2500 visibilité horizontale de 2500 mètres
RADZ pluie, bruine